Time;durP1;ratioP1;P1;durP2;ratioP2;P2;SDS_P1;SDS_P2;PMS_P1;PMS_P2;Temp;Humidity;BMP_temperature;BMP_pressure;BME280_temperature;BME280_humidity;BME280_pressure;Samples;Min_cycle;Max_cycle;Signal;HPM_P1;HPM_P2
2021/11/04 00:01:42;;;;;;;2.08;1.60;;;5.60;99.90;;;;;;20882206;28;20029;-81
2021/11/04 00:11:43;;;;;;;;;;;5.50;99.90;;;;;;20905585;28;20099;-80
2021/11/04 00:21:44;;;;;;;3.13;1.95;;;5.50;99.90;;;;;;20910014;28;19921;-80
2021/11/04 00:31:45;;;;;;;2.92;2.17;;;5.50;99.90;;;;;;20936465;28;20033;-79
2021/11/04 00:41:46;;;;;;;3.45;2.10;;;5.50;99.90;;;;;;20960438;28;20043;-80
2021/11/04 00:51:47;;;;;;;3.92;2.38;;;5.40;99.90;;;;;;20958041;28;20024;-80
2021/11/04 01:01:49;;;;;;;6.78;2.63;;;5.50;99.90;;;;;;20967482;28;20122;-81
2021/11/04 01:11:50;;;;;;;2.88;2.10;;;5.50;99.90;;;;;;20965054;28;20056;-80
2021/11/04 01:21:51;;;;;;;3.85;2.40;;;5.50;99.90;;;;;;20963092;28;20037;-79
2021/11/04 01:31:51;;;;;;;4.78;2.90;;;5.50;99.90;;;;;;20945772;28;20109;-81
2021/11/04 01:41:53;;;;;;;3.42;2.42;;;5.50;99.90;;;;;;20962828;28;20041;-81
2021/11/04 01:51:54;;;;;;;4.53;2.88;;;5.50;99.90;;;;;;20930187;28;20064;-80
2021/11/04 02:02:16;;;;;;;4.40;2.95;;;5.50;99.90;;;;;;20932790;28;20640;-79
2021/11/04 02:12:27;;;;;;;4.80;3.03;;;5.50;99.90;;;;;;20947527;28;20088;-80
2021/11/04 02:22:47;;;;;;;5.38;3.40;;;5.50;99.90;;;;;;20932601;28;20040;-81
2021/11/04 02:32:50;;;;;;;4.65;3.08;;;5.50;99.90;;;;;;20935271;28;20043;-80
2021/11/04 02:42:52;;;;;;;5.63;3.83;;;5.50;99.90;;;;;;20927107;28;20033;-78
2021/11/04 02:52:56;;;;;;;5.07;3.63;;;5.50;99.90;;;;;;20953338;28;20033;-79
2021/11/04 03:02:57;;;;;;;7.72;3.72;;;5.50;99.90;;;;;;20934839;28;20032;-80
2021/11/04 03:12:58;;;;;;;6.03;3.88;;;5.50;99.90;;;;;;20978458;28;20085;-79
2021/11/04 03:23:00;;;;;;;6.60;3.67;;;5.60;99.90;;;;;;20954616;28;20039;-79
2021/11/04 03:33:03;;;;;;;7.30;4.40;;;5.60;99.90;;;;;;20952394;28;20060;-81
2021/11/04 03:43:06;;;;;;;6.03;4.53;;;5.60;99.90;;;;;;20913410;28;20025;-78
2021/11/04 03:53:08;;;;;;;8.75;5.40;;;5.60;99.90;;;;;;20875002;28;20040;-81
2021/11/04 04:03:09;;;;;;;8.88;5.82;;;5.50;99.90;;;;;;20875492;28;20029;-81
2021/11/04 04:13:10;;;;;;;10.90;6.47;;;5.60;99.90;;;;;;20878302;28;20025;-78
2021/11/04 04:23:11;;;;;;;11.13;6.93;;;5.50;99.90;;;;;;20862200;28;20042;-80
2021/11/04 04:33:12;;;;;;;12.60;7.30;;;5.40;99.90;;;;;;20857690;28;20040;-78
2021/11/04 04:43:13;;;;;;;11.15;7.13;;;5.40;99.90;;;;;;20857537;28;20037;-80
2021/11/04 04:53:13;;;;;;;14.00;6.90;;;5.40;99.90;;;;;;20858271;28;20033;-81
2021/11/04 05:03:15;;;;;;;13.88;7.55;;;5.40;99.90;;;;;;20858233;28;20109;-78
2021/11/04 05:13:16;;;;;;;15.90;8.68;;;5.40;99.90;;;;;;20857634;28;20025;-80
2021/11/04 05:23:16;;;;;;;;;;;5.30;99.90;;;;;;20882400;22;20062;-76
2021/11/04 05:33:17;;;;;;;15.60;8.13;;;5.10;99.90;;;;;;20911042;28;19935;-76
2021/11/04 05:43:18;;;;;;;18.35;8.93;;;5.10;99.90;;;;;;20910512;28;20276;-77
2021/11/04 05:53:19;;;;;;;;;;;5.00;99.90;;;;;;20910494;28;20025;-76
2021/11/04 06:03:20;;;;;;;19.77;9.07;;;5.00;99.90;;;;;;20908450;28;20469;-79
2021/11/04 06:13:20;;;;;;;;;;;5.00;99.90;;;;;;20878648;28;20074;-79
2021/11/04 06:23:21;;;;;;;17.83;10.33;;;5.00;99.90;;;;;;20909796;28;19974;-77
2021/11/04 06:33:22;;;;;;;21.55;10.93;;;5.00;99.90;;;;;;20911981;28;20307;-77
2021/11/04 06:43:22;;;;;;;;;;;5.10;99.90;;;;;;20907330;28;20077;-77
2021/11/04 06:53:26;;;;;;;20.58;11.43;;;5.10;99.90;;;;;;20908835;28;20015;-77
2021/11/04 07:03:30;;;;;;;22.70;11.73;;;5.10;99.90;;;;;;20895202;28;20029;-77
2021/11/04 07:13:32;;;;;;;20.15;10.75;;;5.20;99.90;;;;;;20895276;28;20025;-78
2021/11/04 07:24:01;;;;;;;19.67;10.50;;;5.20;99.90;;;;;;20927974;28;20044;-78
2021/11/04 07:34:03;;;;;;;19.00;11.20;;;5.30;99.90;;;;;;20921060;28;20045;-77
2021/11/04 07:44:05;;;;;;;21.58;11.32;;;5.30;99.90;;;;;;20924717;28;20025;-79
2021/11/04 07:54:06;;;;;;;21.88;10.48;;;5.40;99.90;;;;;;20906960;28;20083;-79
2021/11/04 08:04:07;;;;;;;19.30;10.68;;;5.50;99.90;;;;;;20907369;28;20025;-79
2021/11/04 08:14:08;;;;;;;15.02;9.52;;;5.60;99.90;;;;;;20906166;28;20032;-78
2021/11/04 08:24:09;;;;;;;17.08;9.52;;;5.70;99.90;;;;;;20902197;28;20029;-78
2021/11/04 08:34:10;;;;;;;15.40;9.20;;;5.60;99.90;;;;;;20884596;28;20075;-78
2021/11/04 08:44:11;;;;;;;13.20;7.93;;;5.60;99.90;;;;;;20917384;28;20071;-77
2021/11/04 08:54:12;;;;;;;12.15;7.70;;;5.70;99.90;;;;;;20917529;28;20469;-79
2021/11/04 09:04:14;;;;;;;10.73;6.63;;;5.70;99.90;;;;;;20899790;28;20029;-80
2021/11/04 09:14:15;;;;;;;9.25;6.70;;;5.80;99.90;;;;;;20917105;28;20029;-78
2021/11/04 09:24:17;;;;;;;11.95;7.00;;;5.80;99.90;;;;;;20897417;28;20037;-78
2021/11/04 09:34:19;;;;;;;12.73;6.47;;;5.90;99.90;;;;;;20914110;28;20017;-78
2021/11/04 09:44:20;;;;;;;9.68;6.45;;;6.10;99.90;;;;;;20896914;28;20033;-78
2021/11/04 09:54:22;;;;;;;11.65;7.25;;;6.20;99.90;;;;;;20894873;28;20025;-78
2021/11/04 10:04:38;;;;;;;13.23;7.68;;;6.40;99.90;;;;;;20893528;28;20079;-79
2021/11/04 10:14:43;;;;;;;10.73;7.22;;;6.40;99.90;;;;;;20911558;28;20037;-78
2021/11/04 10:24:47;;;;;;;10.80;6.97;;;6.50;99.90;;;;;;20910623;28;20037;-78
2021/11/04 10:34:48;;;;;;;11.07;7.13;;;6.70;99.90;;;;;;20910575;28;20488;-78
2021/11/04 10:44:49;;;;;;;11.40;6.97;;;6.70;99.90;;;;;;20910454;28;20146;-77
2021/11/04 10:54:51;;;;;;;10.57;6.40;;;6.70;99.90;;;;;;20878486;28;20569;-78
2021/11/04 11:04:52;;;;;;;9.43;6.32;;;6.80;99.90;;;;;;20857552;28;20111;-78
2021/11/04 11:14:53;;;;;;;6.20;4.57;;;6.80;99.90;;;;;;20874128;28;20123;-78
2021/11/04 11:24:55;;;;;;;8.60;4.47;;;6.60;99.90;;;;;;20881697;22;20080;-83
2021/11/04 11:35:15;;;;;;;8.85;5.18;;;6.60;99.90;;;;;;20850976;28;20075;-84
2021/11/04 11:45:16;;;;;;;5.70;3.55;;;7.10;99.90;;;;;;20832011;28;20184;-85
2021/11/04 11:55:30;;;;;;;7.80;3.50;;;7.10;99.90;;;;;;20840405;28;20032;-85
2021/11/04 12:05:35;;;;;;;8.95;3.75;;;7.20;99.90;;;;;;20845760;28;20083;-84
2021/11/04 12:16:07;;;;;;;5.80;3.75;;;7.40;99.90;;;;;;20864909;28;20033;-84
2021/11/04 12:26:08;;;;;;;5.67;3.40;;;7.40;99.90;;;;;;20865140;28;20704;-83
2021/11/04 12:36:09;;;;;;;4.27;2.97;;;8.20;99.90;;;;;;20862936;28;20211;-82
2021/11/04 12:46:20;;;;;;;6.35;4.10;;;9.70;99.90;;;;;;20849875;28;20127;-83
2021/11/04 12:56:53;;;;;;;6.72;4.72;;;9.00;99.90;;;;;;20855804;28;20624;-83
2021/11/04 13:06:54;;;;;;;6.95;4.20;;;8.10;99.90;;;;;;20849808;28;20045;-83
2021/11/04 13:16:55;;;;;;;5.18;3.60;;;7.60;99.90;;;;;;20858831;28;20045;-83
2021/11/04 13:26:56;;;;;;;12.33;5.20;;;7.60;99.90;;;;;;20848697;28;20037;-84
2021/11/04 13:36:57;;;;;;;5.07;3.20;;;9.00;99.90;;;;;;20860286;28;20477;-84
2021/11/04 13:46:58;;;;;;;4.97;3.43;;;9.90;99.90;;;;;;20844123;28;20049;-83
2021/11/04 13:57:07;;;;;;;4.32;2.95;;;8.70;99.90;;;;;;20846410;28;20444;-83
2021/11/04 14:07:08;;;;;;;6.15;3.63;;;7.90;99.90;;;;;;20859291;28;20035;-82
2021/11/04 14:17:10;;;;;;;11.60;4.27;;;8.20;99.90;;;;;;20851622;28;20049;-81
2021/11/04 14:27:11;;;;;;;4.90;3.72;;;7.90;99.90;;;;;;20849560;28;20044;-80
2021/11/04 14:37:12;;;;;;;8.83;4.17;;;7.60;99.90;;;;;;20859608;28;20032;-79
2021/11/04 14:47:13;;;;;;;7.85;3.17;;;7.60;99.90;;;;;;20865326;28;20033;-81
2021/11/04 14:57:14;;;;;;;6.10;3.63;;;7.80;99.90;;;;;;20871222;28;20045;-80
2021/11/04 15:07:15;;;;;;;4.77;3.50;;;7.70;99.90;;;;;;20876962;28;20466;-82
2021/11/04 15:17:15;;;;;;;3.87;3.23;;;7.60;99.90;;;;;;20863697;28;20053;-79
2021/11/04 15:27:16;;;;;;;4.10;3.23;;;7.60;99.90;;;;;;20876828;28;20564;-79
2021/11/04 15:37:17;;;;;;;6.00;4.10;;;7.40;99.90;;;;;;20868219;28;20037;-80
2021/11/04 15:47:18;;;;;;;5.90;4.13;;;7.10;99.90;;;;;;20865881;28;20099;-80
2021/11/04 15:57:19;;;;;;;4.27;3.27;;;6.90;99.90;;;;;;20862957;28;20028;-81
2021/11/04 16:07:20;;;;;;;;;;;6.70;99.90;;;;;;20868665;28;20041;-81
2021/11/04 16:17:21;;;;;;;21.07;9.77;;;6.60;99.90;;;;;;20845187;28;19913;-82
2021/11/04 16:27:22;;;;;;;9.60;5.60;;;6.60;99.90;;;;;;20858588;28;20030;-80
2021/11/04 16:37:29;;;;;;;6.97;4.47;;;6.50;99.90;;;;;;20860641;28;20275;-81
2021/11/04 16:47:30;;;;;;;6.50;4.28;;;6.50;99.90;;;;;;20853152;28;20043;-80
2021/11/04 16:57:31;;;;;;;;;;;6.50;99.90;;;;;;20853431;28;20036;-79
2021/11/04 17:07:32;;;;;;;11.02;5.80;;;6.40;99.90;;;;;;20850390;28;20458;-80
2021/11/04 17:17:33;;;;;;;8.77;4.90;;;6.20;99.90;;;;;;20851366;28;20115;-81
2021/11/04 17:27:34;;;;;;;3.83;2.87;;;6.30;99.90;;;;;;20833284;22;20075;-78
2021/11/04 17:37:34;;;;;;;6.13;3.83;;;6.10;99.90;;;;;;20785166;28;20033;-74
2021/11/04 17:47:35;;;;;;;6.37;3.13;;;5.70;99.90;;;;;;20806548;28;20040;-76
2021/11/04 17:57:37;;;;;;;44.97;15.02;;;5.10;99.90;;;;;;20806223;28;20036;-78
2021/11/04 18:07:38;;;;;;;7.07;3.13;;;4.90;99.90;;;;;;20804660;28;20036;-76
2021/11/04 18:17:42;;;;;;;6.03;4.22;;;5.00;99.90;;;;;;20785737;28;20504;-77
2021/11/04 18:27:43;;;;;;;5.50;3.95;;;5.00;99.90;;;;;;20773140;28;20356;-76
2021/11/04 18:37:43;;;;;;;11.57;4.78;;;4.90;99.90;;;;;;20799741;28;20029;-76
2021/11/04 18:47:44;;;;;;;5.45;3.45;;;4.90;99.90;;;;;;20800926;28;20025;-75
2021/11/04 18:57:46;;;;;;;10.98;6.38;;;5.00;99.90;;;;;;20798867;28;20124;-74
2021/11/04 19:07:47;;;;;;;14.15;7.50;;;5.00;99.90;;;;;;20782638;28;20037;-76
2021/11/04 19:17:48;;;;;;;8.45;5.72;;;4.90;99.90;;;;;;20782799;28;20101;-78
2021/11/04 19:27:49;;;;;;;8.48;4.75;;;5.00;99.90;;;;;;20799191;28;20024;-76
2021/11/04 19:37:50;;;;;;;7.00;4.32;;;5.10;99.90;;;;;;20780190;28;20411;-78
2021/11/04 19:47:52;;;;;;;7.37;5.13;;;5.00;99.90;;;;;;20803851;28;20025;-76
2021/11/04 19:57:53;;;;;;;6.93;4.97;;;4.50;99.90;;;;;;20814296;28;20284;-75
2021/11/04 20:07:55;;;;;;;5.90;4.47;;;4.50;99.90;;;;;;20797695;28;20172;-75
2021/11/04 20:17:56;;;;;;;9.25;5.60;;;4.30;99.90;;;;;;20816692;28;20120;-78
2021/11/04 20:27:56;;;;;;;7.20;5.35;;;4.30;99.90;;;;;;20817283;28;20574;-77
2021/11/04 20:37:57;;;;;;;6.93;4.78;;;4.30;99.90;;;;;;20815035;28;20036;-75
2021/11/04 20:47:58;;;;;;;8.05;5.43;;;4.40;99.90;;;;;;20812135;28;20092;-74
2021/11/04 20:57:59;;;;;;;10.70;6.35;;;4.60;99.90;;;;;;20814007;28;20063;-75
2021/11/04 21:08:00;;;;;;;;;;;4.70;99.90;;;;;;20792257;28;20087;-75
2021/11/04 21:18:01;;;;;;;8.05;6.40;;;4.80;99.90;;;;;;20808021;28;20315;-79
2021/11/04 21:28:04;;;;;;;18.45;10.95;;;4.80;99.90;;;;;;20790878;28;20034;-78
2021/11/04 21:38:05;;;;;;;12.38;7.55;;;4.80;99.90;;;;;;20806310;28;20568;-80
2021/11/04 21:48:06;;;;;;;;;;;5.00;99.90;;;;;;20786690;28;20034;-77
2021/11/04 21:58:07;;;;;;;10.97;6.37;;;4.90;99.90;;;;;;20800300;28;19924;-76
2021/11/04 22:08:07;;;;;;;12.90;8.07;;;4.90;99.90;;;;;;20798123;28;20330;-77
2021/11/04 22:18:08;;;;;;;11.80;7.80;;;4.80;99.90;;;;;;20780022;28;20041;-78
2021/11/04 22:28:12;;;;;;;16.80;9.95;;;4.80;99.90;;;;;;20763581;28;20515;-75
2021/11/04 22:38:13;;;;;;;12.50;7.88;;;4.80;99.90;;;;;;20802853;28;20083;-75
2021/11/04 22:48:15;;;;;;;;;;;4.70;99.90;;;;;;20780588;28;20491;-77
2021/11/04 22:58:15;;;;;;;11.57;7.30;;;4.60;99.90;;;;;;20798364;28;19920;-76
2021/11/04 23:08:17;;;;;;;19.00;10.80;;;4.60;99.90;;;;;;20780916;28;20029;-78
2021/11/04 23:18:18;;;;;;;25.67;11.30;;;4.60;99.90;;;;;;20782566;28;20034;-76
2021/11/04 23:28:19;;;;;;;20.80;11.90;;;4.70;99.90;;;;;;20860470;23;20414;-82
2021/11/04 23:38:20;;;;;;;22.85;12.60;;;4.80;99.90;;;;;;20864839;28;20038;-80
2021/11/04 23:48:21;;;;;;;;;;;4.70;99.90;;;;;;20862704;28;20029;-81
2021/11/04 23:58:22;;;;;;;19.42;11.95;;;4.70;99.90;;;;;;20842323;28;19923;-79
